createdAt,value
2023-01-27T00:00:10.333Z,98.97
2023-01-27T00:01:10.287Z,99.18
2023-01-27T00:02:10.849Z,99.23
2023-01-27T00:03:11.474Z,99.08
2023-01-27T00:04:09.914Z,98.66
2023-01-27T00:05:11.589Z,98.25
2023-01-27T00:06:10.723Z,98.60
2023-01-27T00:07:10.668Z,98.39
2023-01-27T00:08:10.835Z,98.29
2023-01-27T00:09:11.576Z,98.71
2023-01-27T00:10:11.624Z,98.71
2023-01-27T00:12:55.621Z,98.77
2023-01-27T00:13:59.708Z,98.77
2023-01-27T00:16:30.506Z,98.56
2023-01-27T00:19:54.130Z,97.72
2023-01-27T00:20:56.654Z,98.35
2023-01-27T00:21:56.702Z,98.35
2023-01-27T00:22:56.454Z,98.46
2023-01-27T00:23:56.500Z,98.39
2023-01-27T00:24:56.464Z,98.60
2023-01-27T00:25:58.002Z,98.60
2023-01-27T00:26:57.124Z,99.27
2023-01-27T00:27:57.225Z,99.27
2023-01-27T00:28:56.616Z,99.80
2023-01-27T00:32:53.661Z,99.99
2023-01-27T00:33:56.290Z,99.99
2023-01-27T00:34:57.870Z,99.99
2023-01-27T00:37:49.579Z,99.99
2023-01-27T00:46:22.047Z,99.29
2023-01-27T00:47:26.021Z,99.18
2023-01-27T00:49:57.839Z,98.77
2023-01-27T00:50:24.579Z,98.60
2023-01-27T00:51:25.811Z,99.23
2023-01-27T00:52:24.280Z,99.59
2023-01-27T00:53:26.147Z,99.99
2023-01-27T00:54:24.294Z,99.99
2023-01-27T00:57:54.319Z,99.96
2023-01-27T00:58:58.089Z,99.99
2023-01-27T00:59:58.268Z,99.99
2023-01-27T01:00:57.888Z,99.99
2023-01-27T01:01:57.244Z,99.99
2023-01-27T01:02:57.242Z,99.99
2023-01-27T01:04:11.118Z,99.99
2023-01-27T01:04:57.514Z,99.99
2023-01-27T01:05:56.962Z,99.99
2023-01-27T01:06:56.335Z,99.99
2023-01-27T01:07:57.108Z,99.85
2023-01-27T01:08:56.347Z,99.99
2023-01-27T01:09:56.528Z,99.99
2023-01-27T01:10:57.315Z,99.91
2023-01-27T01:11:56.126Z,99.99
2023-01-27T01:12:56.409Z,99.99
2023-01-27T01:13:56.521Z,99.99
2023-01-27T01:14:57.616Z,99.99
2023-01-27T01:15:56.210Z,99.99
2023-01-27T01:16:57.024Z,99.99
2023-01-27T01:17:56.891Z,99.99
2023-01-27T01:18:56.693Z,99.85
2023-01-27T01:19:55.859Z,99.75
2023-01-27T01:20:56.011Z,99.99
2023-01-27T01:21:57.422Z,99.71
2023-01-27T01:22:56.935Z,99.99
2023-01-27T01:23:56.135Z,99.99
2023-01-27T01:24:56.915Z,99.99
2023-01-27T01:25:56.149Z,99.81
2023-01-27T01:26:56.882Z,99.96
2023-01-27T01:27:56.877Z,99.81
2023-01-27T01:28:55.956Z,99.81
2023-01-27T01:29:56.365Z,99.91
2023-01-27T01:30:56.090Z,99.50
2023-01-27T01:31:55.823Z,99.29
2023-01-27T01:32:57.210Z,99.55
2023-01-27T01:34:19.735Z,99.14
2023-01-27T01:34:56.099Z,99.08
2023-01-27T01:35:55.979Z,99.18
2023-01-27T01:36:55.852Z,98.66
2023-01-27T01:37:57.240Z,99.04
2023-01-27T01:38:56.332Z,98.72
2023-01-27T01:39:56.165Z,98.52
2023-01-27T01:40:57.032Z,98.97
2023-01-27T01:41:55.930Z,98.72
2023-01-27T01:42:55.949Z,98.52
2023-01-27T01:43:55.743Z,98.52
2023-01-27T01:44:56.052Z,98.31
2023-01-27T01:45:56.010Z,98.31
2023-01-27T01:46:56.096Z,98.10
2023-01-27T01:47:56.643Z,98.20
2023-01-27T01:48:56.698Z,98.20
2023-01-27T01:49:56.045Z,98.41
2023-01-27T01:50:56.201Z,98.10
2023-01-27T01:51:55.825Z,98.31
2023-01-27T01:52:55.809Z,98.41
2023-01-27T01:53:55.849Z,97.68
2023-01-27T01:54:56.186Z,98.41
2023-01-27T01:55:55.648Z,98.10
2023-01-27T01:56:55.605Z,98.10
2023-01-27T01:57:55.932Z,98.20
2023-01-27T01:58:55.734Z,97.99
2023-01-27T01:59:55.720Z,98.20
2023-01-27T02:00:56.114Z,98.20
2023-01-27T02:01:56.517Z,98.20
2023-01-27T02:02:55.846Z,98.20
2023-01-27T02:03:56.211Z,98.20
2023-01-27T02:04:55.701Z,97.99
2023-01-27T02:05:55.568Z,98.36
2023-01-27T02:06:56.057Z,98.20
2023-01-27T02:07:55.783Z,98.10
2023-01-27T02:08:56.029Z,98.16
2023-01-27T02:09:56.543Z,97.85
2023-01-27T02:10:56.248Z,97.99
2023-01-27T02:11:56.365Z,97.74
2023-01-27T02:12:55.616Z,97.78
2023-01-27T02:13:55.522Z,97.89
2023-01-27T02:14:55.831Z,97.27
2023-01-27T02:15:55.657Z,97.89
2023-01-27T02:16:55.652Z,97.43
2023-01-27T02:17:55.682Z,97.22
2023-01-27T02:18:55.397Z,97.68
2023-01-27T02:19:55.308Z,97.68
2023-01-27T02:20:55.496Z,97.68
2023-01-27T02:21:55.503Z,97.83
2023-01-27T02:22:55.443Z,97.83
2023-01-27T02:23:55.467Z,98.25
2023-01-27T02:24:55.350Z,98.87
2023-01-27T02:25:55.286Z,98.97
2023-01-27T02:26:55.339Z,99.18
2023-01-27T02:27:55.162Z,99.29
2023-01-27T02:28:55.734Z,99.40
2023-01-27T02:29:55.439Z,99.29
2023-01-27T02:30:55.456Z,99.60
2023-01-27T02:31:55.208Z,99.50
2023-01-27T02:32:55.146Z,99.71
2023-01-27T02:33:55.124Z,99.60
2023-01-27T02:34:55.271Z,99.81
2023-01-27T02:35:55.771Z,99.18
2023-01-27T02:36:54.995Z,99.50
2023-01-27T02:37:55.457Z,99.29
2023-01-27T02:38:55.603Z,99.14
2023-01-27T02:39:55.733Z,99.04
2023-01-27T02:40:55.450Z,99.04
2023-01-27T02:41:55.708Z,98.83
2023-01-27T02:42:55.103Z,99.14
2023-01-27T02:43:55.338Z,99.24
2023-01-27T02:44:55.328Z,98.83
2023-01-27T02:45:56.005Z,98.93
2023-01-27T02:46:55.342Z,98.52
2023-01-27T02:50:20.880Z,98.36
2023-01-27T02:51:23.537Z,98.20
2023-01-27T02:52:23.418Z,98.16
2023-01-27T02:53:22.608Z,98.31
2023-01-27T02:54:22.567Z,98.16
2023-01-27T02:55:22.608Z,98.31
2023-01-27T02:56:22.611Z,98.41
2023-01-27T02:57:22.707Z,98.05
2023-01-27T02:58:22.446Z,98.16
2023-01-27T02:59:22.727Z,97.95
2023-01-27T03:00:23.808Z,98.10
2023-01-27T03:01:23.085Z,98.16
2023-01-27T03:02:22.606Z,98.05
2023-01-27T03:03:22.582Z,98.16
2023-01-27T03:04:22.689Z,98.05
2023-01-27T03:05:23.036Z,97.85
2023-01-27T03:06:23.256Z,97.89
2023-01-27T03:07:22.637Z,98.26
2023-01-27T03:08:22.377Z,97.95
2023-01-27T03:09:22.899Z,98.20
2023-01-27T03:10:23.174Z,97.99
2023-01-27T03:11:22.652Z,97.78
2023-01-27T03:12:23.492Z,98.62
2023-01-27T03:13:22.743Z,98.72
2023-01-27T03:14:23.062Z,98.83
2023-01-27T03:15:22.715Z,98.68
2023-01-27T03:16:22.782Z,98.68
2023-01-27T03:18:55.707Z,98.62
2023-01-27T03:19:24.174Z,98.68
2023-01-27T03:20:22.886Z,98.47
2023-01-27T03:21:22.732Z,98.31
2023-01-27T03:22:22.686Z,98.26
2023-01-27T03:23:22.612Z,98.26
2023-01-27T03:24:22.664Z,97.85
2023-01-27T03:25:22.555Z,98.16
2023-01-27T03:26:22.291Z,97.74
2023-01-27T03:27:22.393Z,98.20
2023-01-27T03:28:22.489Z,98.36
2023-01-27T03:29:22.447Z,98.41
2023-01-27T03:30:22.143Z,98.57
2023-01-27T03:31:22.254Z,98.26
2023-01-27T03:32:22.018Z,97.64
2023-01-27T03:33:22.182Z,98.16
2023-01-27T03:34:22.170Z,98.16
2023-01-27T03:35:22.010Z,98.16
2023-01-27T03:36:22.045Z,97.95
2023-01-27T03:37:21.911Z,98.36
2023-01-27T03:38:22.009Z,98.47
2023-01-27T03:39:21.950Z,98.16
2023-01-27T03:40:21.933Z,98.26
2023-01-27T03:41:21.806Z,98.36
2023-01-27T03:42:21.841Z,98.36
2023-01-27T03:43:21.887Z,98.16
2023-01-27T03:44:21.689Z,98.26
2023-01-27T03:45:21.850Z,97.95
2023-01-27T03:46:21.853Z,98.16
2023-01-27T03:47:21.776Z,98.26
2023-01-27T03:48:22.805Z,97.85
2023-01-27T03:49:21.759Z,98.26
2023-01-27T03:50:21.856Z,98.36
2023-01-27T03:51:21.768Z,98.26
2023-01-27T03:52:21.656Z,98.16
2023-01-27T03:53:21.699Z,98.31
2023-01-27T03:54:21.683Z,98.62
2023-01-27T03:55:21.601Z,98.62
2023-01-27T03:56:21.705Z,98.47
2023-01-27T03:57:21.610Z,98.36
2023-01-27T03:58:21.679Z,98.36
2023-01-27T03:59:21.655Z,98.36
2023-01-27T04:00:21.664Z,98.36
2023-01-27T04:01:21.735Z,98.20
2023-01-27T04:02:21.777Z,97.95
2023-01-27T04:03:21.693Z,98.16
2023-01-27T04:04:21.507Z,98.26
2023-01-27T04:05:21.787Z,97.85
2023-01-27T04:06:21.568Z,97.95
2023-01-27T04:07:21.610Z,98.01
2023-01-27T04:08:21.580Z,97.64
2023-01-27T04:09:21.376Z,97.64
2023-01-27T04:10:21.571Z,97.95
2023-01-27T04:11:21.595Z,97.64
2023-01-27T04:12:21.535Z,97.91
2023-01-27T04:13:21.506Z,97.64
2023-01-27T04:14:21.510Z,97.17
2023-01-27T04:15:21.530Z,97.12
2023-01-27T04:16:21.813Z,97.12
2023-01-27T04:17:21.613Z,97.22
2023-01-27T04:18:21.570Z,97.43
2023-01-27T04:19:21.592Z,97.74
2023-01-27T04:20:21.577Z,97.01
2023-01-27T04:21:21.588Z,97.22
2023-01-27T04:22:21.541Z,97.64
2023-01-27T04:23:21.736Z,97.22
2023-01-27T04:24:21.868Z,97.64
2023-01-27T04:25:21.341Z,97.74
2023-01-27T04:26:21.458Z,97.85
2023-01-27T04:27:21.434Z,97.85
2023-01-27T04:28:37.242Z,97.74
2023-01-27T04:29:23.509Z,97.74
2023-01-27T04:30:21.699Z,97.22
2023-01-27T04:31:21.401Z,97.33
2023-01-27T04:32:21.689Z,97.33
2023-01-27T04:33:28.949Z,97.64
2023-01-27T04:34:21.457Z,97.22
2023-01-27T04:35:25.298Z,97.22
2023-01-27T04:36:23.552Z,97.85
2023-01-27T04:37:21.431Z,97.12
2023-01-27T04:38:21.377Z,97.64
2023-01-27T04:39:21.568Z,97.33
2023-01-27T04:40:21.368Z,97.22
2023-01-27T04:41:21.331Z,97.80
2023-01-27T04:42:21.286Z,97.43
2023-01-27T04:43:21.347Z,97.22
2023-01-27T04:44:21.370Z,97.64
2023-01-27T04:45:21.341Z,97.53
2023-01-27T04:46:21.353Z,96.86
2023-01-27T04:47:21.300Z,97.17
2023-01-27T04:48:21.547Z,97.17
2023-01-27T04:49:21.401Z,97.22
2023-01-27T04:50:21.663Z,97.49
2023-01-27T04:51:21.403Z,97.59
2023-01-27T04:52:21.517Z,97.74
2023-01-27T04:53:21.275Z,97.59
2023-01-27T04:54:21.351Z,96.97
2023-01-27T04:55:21.253Z,96.97
2023-01-27T04:56:21.507Z,97.07
2023-01-27T04:57:21.314Z,97.74
2023-01-27T04:58:21.217Z,97.59
2023-01-27T04:59:21.335Z,97.59
2023-01-27T05:00:21.216Z,97.59
2023-01-27T05:01:21.296Z,97.49
2023-01-27T05:02:21.326Z,97.59
2023-01-27T05:03:21.304Z,97.85
2023-01-27T05:04:21.244Z,98.16
2023-01-27T05:05:21.131Z,97.59
2023-01-27T05:06:21.254Z,97.59
2023-01-27T05:07:21.346Z,97.95
2023-01-27T05:08:21.271Z,98.01
2023-01-27T05:09:21.312Z,98.22
2023-01-27T05:10:21.248Z,97.85
2023-01-27T05:11:21.305Z,98.11
2023-01-27T05:12:21.176Z,98.26
2023-01-27T05:13:21.182Z,97.91
2023-01-27T05:14:21.579Z,97.80
2023-01-27T05:15:21.987Z,98.22
2023-01-27T05:16:21.356Z,98.22
2023-01-27T05:17:21.150Z,97.80
2023-01-27T05:18:21.339Z,97.95
2023-01-27T05:19:21.313Z,98.01
2023-01-27T05:20:21.204Z,97.59
2023-01-27T05:21:21.263Z,98.11
2023-01-27T05:22:21.180Z,97.59
2023-01-27T05:23:21.274Z,97.91
2023-01-27T05:24:21.257Z,97.80
2023-01-27T05:25:21.083Z,97.70
2023-01-27T05:26:21.304Z,97.74
2023-01-27T05:27:21.403Z,98.11
2023-01-27T05:28:21.294Z,98.11
2023-01-27T05:29:21.067Z,98.22
2023-01-27T05:30:21.013Z,97.59
2023-01-27T05:31:21.164Z,98.16
2023-01-27T05:32:21.147Z,97.95
2023-01-27T05:33:21.154Z,98.16
2023-01-27T05:34:21.128Z,97.59
2023-01-27T05:35:20.997Z,97.64
2023-01-27T05:36:20.974Z,98.32
2023-01-27T05:37:21.220Z,98.22
2023-01-27T05:38:21.325Z,97.64
2023-01-27T05:39:21.058Z,98.11
2023-01-27T05:40:21.065Z,98.11
2023-01-27T05:41:21.107Z,98.11
2023-01-27T05:42:21.194Z,97.91
2023-01-27T05:43:21.142Z,98.26
2023-01-27T05:44:20.907Z,97.80
2023-01-27T05:45:21.208Z,97.95
2023-01-27T05:46:20.937Z,98.32
2023-01-27T05:47:21.005Z,97.91
2023-01-27T05:48:20.792Z,98.47
2023-01-27T05:49:20.906Z,97.70
2023-01-27T05:50:20.988Z,98.11
2023-01-27T05:51:37.467Z,98.32
2023-01-27T05:52:21.812Z,98.22
2023-01-27T05:53:20.944Z,97.91
2023-01-27T05:54:21.100Z,97.59
2023-01-27T05:55:21.390Z,97.59
2023-01-27T05:56:20.897Z,98.11
2023-01-27T05:57:20.979Z,98.01
2023-01-27T05:58:20.927Z,98.22
2023-01-27T05:59:21.027Z,98.11
2023-01-27T06:00:20.780Z,97.91
2023-01-27T06:01:20.722Z,97.80
2023-01-27T07:49:17.995Z,97.81
2023-01-27T08:59:34.193Z,92.66
2023-01-27T10:50:43.178Z,91.43
2023-01-27T10:51:44.600Z,91.64
2023-01-27T10:52:44.433Z,91.49
2023-01-27T10:53:44.569Z,90.91
2023-01-27T10:54:45.788Z,90.66
2023-01-27T10:58:27.022Z,90.45
2023-01-27T11:03:24.975Z,90.10
2023-01-27T11:18:57.878Z,89.34
2023-01-27T11:29:32.043Z,89.23
2023-01-27T11:38:44.594Z,89.09
2023-01-27T11:46:50.790Z,87.95
2023-01-27T11:50:01.555Z,87.87
2023-01-27T11:51:35.822Z,87.56
2023-01-27T11:52:02.333Z,87.56
2023-01-27T11:55:11.236Z,86.40
2023-01-27T11:56:17.877Z,86.29
2023-01-27T11:57:13.428Z,86.25
2023-01-27T11:59:47.939Z,86.81
2023-01-27T12:00:50.702Z,87.18
2023-01-27T12:04:34.830Z,86.32
2023-01-27T12:06:13.185Z,86.11
2023-01-27T12:06:36.309Z,85.32
2023-01-27T12:07:36.356Z,86.46
2023-01-27T12:11:20.723Z,86.36
2023-01-27T12:14:20.245Z,85.94
2023-01-27T12:15:22.603Z,85.94
2023-01-27T12:18:30.421Z,87.23
2023-01-27T12:30:32.649Z,86.19
2023-01-27T12:36:31.171Z,86.40
2023-01-27T12:37:30.358Z,86.29
2023-01-27T12:38:30.355Z,86.50
2023-01-27T12:39:30.311Z,86.91
2023-01-27T12:40:30.242Z,86.29
2023-01-27T12:41:30.117Z,87.02
2023-01-27T12:42:30.235Z,86.50
2023-01-27T12:43:30.033Z,87.23
2023-01-27T12:44:30.002Z,86.15
2023-01-27T12:45:30.142Z,87.23
2023-01-27T12:46:30.210Z,86.88
2023-01-27T12:47:30.107Z,87.02
2023-01-27T12:48:30.753Z,86.81
2023-01-27T12:49:30.138Z,87.68
2023-01-27T12:50:30.070Z,88.06
2023-01-27T12:51:30.117Z,87.95
2023-01-27T12:52:30.241Z,87.95
2023-01-27T12:53:30.129Z,87.85
2023-01-27T12:54:32.160Z,87.85
2023-01-27T12:55:30.149Z,87.33
2023-01-27T12:56:30.226Z,87.23
2023-01-27T12:57:30.042Z,86.71
2023-01-27T12:58:30.241Z,87.39
2023-01-27T12:59:30.131Z,87.23
2023-01-27T13:00:30.012Z,87.43
2023-01-27T13:01:30.205Z,87.85
2023-01-27T13:02:29.951Z,88.16
2023-01-27T13:03:30.186Z,87.85
2023-01-27T13:04:29.980Z,87.74
2023-01-27T13:05:30.101Z,87.54
2023-01-27T13:06:30.072Z,87.33
2023-01-27T13:07:29.901Z,87.64
2023-01-27T13:08:29.955Z,87.85
2023-01-27T13:09:29.994Z,88.06
2023-01-27T13:10:29.973Z,88.16
2023-01-27T13:11:29.917Z,87.95
2023-01-27T13:12:29.786Z,88.40
2023-01-27T13:13:29.884Z,88.40
2023-01-27T13:14:29.989Z,88.20
2023-01-27T13:15:29.900Z,87.99
2023-01-27T13:16:30.930Z,88.20
2023-01-27T13:17:29.892Z,88.76
2023-01-27T13:18:30.020Z,88.76
2023-01-27T13:19:29.885Z,88.82
2023-01-27T13:20:30.052Z,89.03
2023-01-27T13:21:29.831Z,88.96
2023-01-27T13:22:30.040Z,88.65
2023-01-27T13:23:29.946Z,88.92
2023-01-27T13:24:29.974Z,88.96
2023-01-27T13:25:29.843Z,89.17
2023-01-27T13:26:29.849Z,89.17
2023-01-27T13:27:29.817Z,89.42
2023-01-27T13:28:31.780Z,89.79
2023-01-27T13:29:29.778Z,89.69
2023-01-27T13:30:29.736Z,89.79
2023-01-27T13:31:29.743Z,89.89
2023-01-27T13:32:29.650Z,89.69
2023-01-27T13:33:29.686Z,89.42
2023-01-27T13:34:29.680Z,89.52
2023-01-27T13:35:29.642Z,89.62
2023-01-27T13:36:29.911Z,90.14
2023-01-27T13:37:29.643Z,89.73
2023-01-27T13:38:29.602Z,89.73
2023-01-27T13:39:29.574Z,89.73
2023-01-27T13:40:29.622Z,89.73
2023-01-27T13:41:29.612Z,90.25
2023-01-27T13:42:29.645Z,90.14
2023-01-27T13:43:29.578Z,89.83
2023-01-27T13:44:29.580Z,89.31
2023-01-27T13:45:29.710Z,89.52
2023-01-27T13:46:29.641Z,89.73
2023-01-27T13:47:29.745Z,89.94
2023-01-27T13:48:29.672Z,89.52
2023-01-27T13:49:29.638Z,89.62
2023-01-27T13:50:29.706Z,89.83
2023-01-27T13:51:29.740Z,89.83
2023-01-27T13:52:29.574Z,89.11
2023-01-27T13:53:29.751Z,89.21
2023-01-27T13:54:29.625Z,89.42
2023-01-27T13:55:29.613Z,89.56
2023-01-27T13:56:29.690Z,89.62
2023-01-27T13:57:29.673Z,89.11
2023-01-27T13:58:30.476Z,89.21
2023-01-27T13:59:30.079Z,89.52
2023-01-27T14:00:29.792Z,89.52
2023-01-27T14:01:30.021Z,89.00
2023-01-27T14:02:29.471Z,88.79
2023-01-27T14:03:30.708Z,88.90
2023-01-27T14:04:29.611Z,88.59
2023-01-27T14:05:29.653Z,88.39
2023-01-27T14:13:20.738Z,88.69
2023-01-27T14:14:24.802Z,88.90
2023-01-27T14:18:50.752Z,89.21
2023-01-27T14:22:14.627Z,89.98
2023-01-27T14:23:17.222Z,89.73
2023-01-27T14:30:40.949Z,89.04
2023-01-27T14:38:37.830Z,89.15
2023-01-27T14:39:40.097Z,88.94
